SIFG weather

Life Center Heliport
Belo Horizonte, Minas Gerais, Brazil

Public forecast

Using degrees Celsius for public forecast. Weather courtesy of forecast.io.

Closest aviation weather report (METAR) to Life Center Heliport

Closest report is Carlos Prates Airport, 4.1 nm (7.5 km) WNW. Retrieved 2019/12/09 09:00 UTC (56 minutes ago):

SBPR 090900Z 10009KT 9999 FEW015 BKN080 19/17 Q1018

Closest aviation forecast (TAF) to Life Center Heliport

Forecast is more than 12 hours old.

Closest forecast is Pampulha - Carlos Drummond de Andrade Airport, 5.3 nm (9.7 km) NNW. Retrieved 2012/03/26 18:12 UTC (8 years ago):

TAF SBBH 261639Z 2618/2706 09005KT 9999 SCT030 TX28/2618Z TN20/2705Z PROB30 2619/2624 8000 TSRA BKN035 FEW045CB RMK PGG